sensor_id;sensor_type;location;lat;lon;timestamp;P1;durP1;ratioP1;P2;durP2;ratioP2
15363;SDS011;7781;49.690;6.472;2022-09-30T00:01:33;4.37;;;3.37;;
15363;SDS011;7781;49.690;6.472;2022-09-30T00:04:01;5.20;;;3.00;;
15363;SDS011;7781;49.690;6.472;2022-09-30T00:06:30;4.40;;;3.20;;
15363;SDS011;7781;49.690;6.472;2022-09-30T00:09:02;9.37;;;3.67;;
15363;SDS011;7781;49.690;6.472;2022-09-30T00:11:32;15.03;;;3.50;;
15363;SDS011;7781;49.690;6.472;2022-09-30T00:14:01;14.50;;;4.27;;
15363;SDS011;7781;49.690;6.472;2022-09-30T00:16:30;7.90;;;3.90;;
15363;SDS011;7781;49.690;6.472;2022-09-30T00:19:00;12.57;;;3.70;;
15363;SDS011;7781;49.690;6.472;2022-09-30T00:21:31;32.07;;;5.20;;
15363;SDS011;7781;49.690;6.472;2022-09-30T00:24:00;38.17;;;5.10;;
15363;SDS011;7781;49.690;6.472;2022-09-30T00:26:30;8.63;;;4.50;;
15363;SDS011;7781;49.690;6.472;2022-09-30T00:28:59;5.90;;;4.13;;
15363;SDS011;7781;49.690;6.472;2022-09-30T00:31:28;10.83;;;4.57;;
15363;SDS011;7781;49.690;6.472;2022-09-30T00:33:57;44.77;;;5.00;;
15363;SDS011;7781;49.690;6.472;2022-09-30T00:36:38;66.37;;;6.37;;
15363;SDS011;7781;49.690;6.472;2022-09-30T00:39:09;82.40;;;7.80;;
15363;SDS011;7781;49.690;6.472;2022-09-30T00:41:41;8.63;;;4.37;;
15363;SDS011;7781;49.690;6.472;2022-09-30T00:47:24;76.53;;;6.30;;
15363;SDS011;7781;49.690;6.472;2022-09-30T00:50:04;24.77;;;5.27;;
15363;SDS011;7781;49.690;6.472;2022-09-30T00:52:39;12.10;;;4.60;;
15363;SDS011;7781;49.690;6.472;2022-09-30T00:55:12;16.60;;;4.73;;
15363;SDS011;7781;49.690;6.472;2022-09-30T00:57:48;137.97;;;7.80;;
15363;SDS011;7781;49.690;6.472;2022-09-30T01:00:16;131.93;;;6.30;;
15363;SDS011;7781;49.690;6.472;2022-09-30T01:02:45;26.67;;;4.83;;
15363;SDS011;7781;49.690;6.472;2022-09-30T01:05:13;38.93;;;4.67;;
15363;SDS011;7781;49.690;6.472;2022-09-30T01:07:41;40.10;;;5.03;;
15363;SDS011;7781;49.690;6.472;2022-09-30T01:10:09;39.93;;;7.63;;
15363;SDS011;7781;49.690;6.472;2022-09-30T01:12:37;21.97;;;4.20;;
15363;SDS011;7781;49.690;6.472;2022-09-30T01:15:08;63.87;;;5.10;;
15363;SDS011;7781;49.690;6.472;2022-09-30T01:17:39;168.97;;;9.23;;
15363;SDS011;7781;49.690;6.472;2022-09-30T01:20:28;90.70;;;7.23;;
15363;SDS011;7781;49.690;6.472;2022-09-30T01:23:27;20.50;;;4.73;;
15363;SDS011;7781;49.690;6.472;2022-09-30T01:26:21;10.57;;;4.90;;
15363;SDS011;7781;49.690;6.472;2022-09-30T01:29:18;148.47;;;8.47;;
15363;SDS011;7781;49.690;6.472;2022-09-30T01:32:09;27.33;;;5.30;;
15363;SDS011;7781;49.690;6.472;2022-09-30T01:34:49;33.50;;;5.40;;
15363;SDS011;7781;49.690;6.472;2022-09-30T01:37:27;31.10;;;4.93;;
15363;SDS011;7781;49.690;6.472;2022-09-30T01:40:04;4.80;;;4.30;;
15363;SDS011;7781;49.690;6.472;2022-09-30T01:42:38;4.43;;;3.67;;
15363;SDS011;7781;49.690;6.472;2022-09-30T01:45:13;23.43;;;4.30;;
15363;SDS011;7781;49.690;6.472;2022-09-30T01:47:47;62.80;;;5.57;;
15363;SDS011;7781;49.690;6.472;2022-09-30T01:50:19;132.17;;;6.50;;
15363;SDS011;7781;49.690;6.472;2022-09-30T01:52:52;28.03;;;4.87;;
15363;SDS011;7781;49.690;6.472;2022-09-30T01:55:26;124.60;;;7.53;;
15363;SDS011;7781;49.690;6.472;2022-09-30T01:57:58;101.37;;;7.27;;
15363;SDS011;7781;49.690;6.472;2022-09-30T02:00:32;143.30;;;7.60;;
15363;SDS011;7781;49.690;6.472;2022-09-30T02:03:08;138.83;;;7.57;;
15363;SDS011;7781;49.690;6.472;2022-09-30T02:05:41;105.10;;;5.50;;
15363;SDS011;7781;49.690;6.472;2022-09-30T02:08:14;90.77;;;5.60;;
15363;SDS011;7781;49.690;6.472;2022-09-30T02:10:45;180.57;;;9.67;;
15363;SDS011;7781;49.690;6.472;2022-09-30T02:13:16;69.60;;;5.40;;
15363;SDS011;7781;49.690;6.472;2022-09-30T02:15:51;264.80;;;8.20;;
15363;SDS011;7781;49.690;6.472;2022-09-30T02:18:25;18.10;;;3.80;;
15363;SDS011;7781;49.690;6.472;2022-09-30T02:20:58;3.83;;;3.40;;
15363;SDS011;7781;49.690;6.472;2022-09-30T02:23:29;4.07;;;3.70;;
15363;SDS011;7781;49.690;6.472;2022-09-30T02:26:01;3.80;;;3.40;;
15363;SDS011;7781;49.690;6.472;2022-09-30T02:28:34;19.60;;;3.83;;
15363;SDS011;7781;49.690;6.472;2022-09-30T02:31:05;10.33;;;3.30;;
15363;SDS011;7781;49.690;6.472;2022-09-30T02:33:38;90.37;;;5.13;;
15363;SDS011;7781;49.690;6.472;2022-09-30T02:36:12;57.83;;;5.27;;
15363;SDS011;7781;49.690;6.472;2022-09-30T02:38:47;60.17;;;5.77;;
15363;SDS011;7781;49.690;6.472;2022-09-30T02:41:22;43.03;;;4.20;;
15363;SDS011;7781;49.690;6.472;2022-09-30T02:43:52;52.10;;;4.20;;
15363;SDS011;7781;49.690;6.472;2022-09-30T02:46:24;57.10;;;5.70;;
15363;SDS011;7781;49.690;6.472;2022-09-30T02:49:00;62.30;;;5.87;;
15363;SDS011;7781;49.690;6.472;2022-09-30T02:51:34;80.50;;;5.10;;
15363;SDS011;7781;49.690;6.472;2022-09-30T02:54:09;81.90;;;6.33;;
15363;SDS011;7781;49.690;6.472;2022-09-30T02:56:49;232.40;;;11.40;;
15363;SDS011;7781;49.690;6.472;2022-09-30T02:59:23;171.27;;;7.67;;
15363;SDS011;7781;49.690;6.472;2022-09-30T03:01:52;111.77;;;6.30;;
15363;SDS011;7781;49.690;6.472;2022-09-30T03:04:24;144.23;;;7.77;;
15363;SDS011;7781;49.690;6.472;2022-09-30T03:06:55;124.93;;;7.10;;
15363;SDS011;7781;49.690;6.472;2022-09-30T03:09:24;64.93;;;6.00;;
15363;SDS011;7781;49.690;6.472;2022-09-30T03:11:53;5.87;;;4.60;;
15363;SDS011;7781;49.690;6.472;2022-09-30T03:14:46;101.83;;;8.13;;
15363;SDS011;7781;49.690;6.472;2022-09-30T03:17:27;107.00;;;7.00;;
15363;SDS011;7781;49.690;6.472;2022-09-30T03:20:07;171.20;;;8.03;;
15363;SDS011;7781;49.690;6.472;2022-09-30T03:22:52;174.17;;;7.30;;
15363;SDS011;7781;49.690;6.472;2022-09-30T03:25:46;43.47;;;4.37;;
15363;SDS011;7781;49.690;6.472;2022-09-30T03:28:24;17.13;;;4.80;;
15363;SDS011;7781;49.690;6.472;2022-09-30T03:30:58;100.73;;;6.87;;
15363;SDS011;7781;49.690;6.472;2022-09-30T03:33:34;50.07;;;5.83;;
15363;SDS011;7781;49.690;6.472;2022-09-30T03:36:10;119.93;;;7.07;;
15363;SDS011;7781;49.690;6.472;2022-09-30T03:38:46;35.27;;;4.70;;
15363;SDS011;7781;49.690;6.472;2022-09-30T03:41:21;48.77;;;4.87;;
15363;SDS011;7781;49.690;6.472;2022-09-30T03:43:56;35.37;;;4.23;;
15363;SDS011;7781;49.690;6.472;2022-09-30T03:46:29;11.80;;;4.10;;
15363;SDS011;7781;49.690;6.472;2022-09-30T03:49:02;16.87;;;4.27;;
15363;SDS011;7781;49.690;6.472;2022-09-30T03:51:35;38.10;;;5.07;;
15363;SDS011;7781;49.690;6.472;2022-09-30T03:54:05;103.87;;;6.20;;
15363;SDS011;7781;49.690;6.472;2022-09-30T03:56:35;26.27;;;4.30;;
15363;SDS011;7781;49.690;6.472;2022-09-30T03:59:09;16.83;;;3.50;;
15363;SDS011;7781;49.690;6.472;2022-09-30T04:01:38;6.43;;;3.27;;
15363;SDS011;7781;49.690;6.472;2022-09-30T04:04:06;23.07;;;3.80;;
15363;SDS011;7781;49.690;6.472;2022-09-30T04:06:36;3.50;;;3.20;;
15363;SDS011;7781;49.690;6.472;2022-09-30T04:09:04;3.30;;;3.00;;
15363;SDS011;7781;49.690;6.472;2022-09-30T04:11:32;3.77;;;3.30;;
15363;SDS011;7781;49.690;6.472;2022-09-30T04:14:00;7.53;;;3.33;;
15363;SDS011;7781;49.690;6.472;2022-09-30T04:16:28;6.90;;;3.63;;
15363;SDS011;7781;49.690;6.472;2022-09-30T04:18:57;21.77;;;3.57;;
15363;SDS011;7781;49.690;6.472;2022-09-30T04:21:25;16.37;;;3.60;;
15363;SDS011;7781;49.690;6.472;2022-09-30T04:23:55;7.23;;;3.10;;
15363;SDS011;7781;49.690;6.472;2022-09-30T04:26:23;23.63;;;3.43;;
15363;SDS011;7781;49.690;6.472;2022-09-30T04:28:51;6.23;;;3.30;;
15363;SDS011;7781;49.690;6.472;2022-09-30T04:31:20;3.70;;;3.23;;
15363;SDS011;7781;49.690;6.472;2022-09-30T04:33:48;3.50;;;3.20;;
15363;SDS011;7781;49.690;6.472;2022-09-30T04:36:16;15.90;;;3.47;;
15363;SDS011;7781;49.690;6.472;2022-09-30T04:38:44;9.10;;;3.07;;
15363;SDS011;7781;49.690;6.472;2022-09-30T04:41:14;5.67;;;2.70;;
15363;SDS011;7781;49.690;6.472;2022-09-30T04:43:43;17.10;;;3.40;;
15363;SDS011;7781;49.690;6.472;2022-09-30T04:46:13;57.10;;;3.80;;
15363;SDS011;7781;49.690;6.472;2022-09-30T04:48:42;87.70;;;5.80;;
15363;SDS011;7781;49.690;6.472;2022-09-30T04:51:11;20.53;;;3.53;;
15363;SDS011;7781;49.690;6.472;2022-09-30T04:53:40;27.57;;;4.60;;
15363;SDS011;7781;49.690;6.472;2022-09-30T04:56:09;21.53;;;3.40;;
15363;SDS011;7781;49.690;6.472;2022-09-30T04:58:38;60.70;;;4.97;;
15363;SDS011;7781;49.690;6.472;2022-09-30T05:01:08;16.67;;;4.20;;
15363;SDS011;7781;49.690;6.472;2022-09-30T05:03:37;81.33;;;4.67;;
15363;SDS011;7781;49.690;6.472;2022-09-30T05:06:06;44.80;;;4.20;;
15363;SDS011;7781;49.690;6.472;2022-09-30T05:08:34;36.93;;;5.73;;
15363;SDS011;7781;49.690;6.472;2022-09-30T05:11:09;47.70;;;5.63;;
15363;SDS011;7781;49.690;6.472;2022-09-30T05:13:41;87.77;;;6.47;;
15363;SDS011;7781;49.690;6.472;2022-09-30T05:16:10;13.77;;;4.40;;
15363;SDS011;7781;49.690;6.472;2022-09-30T05:18:40;35.40;;;4.53;;
15363;SDS011;7781;49.690;6.472;2022-09-30T05:21:12;43.03;;;4.80;;
15363;SDS011;7781;49.690;6.472;2022-09-30T05:23:40;12.20;;;5.07;;
15363;SDS011;7781;49.690;6.472;2022-09-30T05:26:08;50.03;;;6.67;;
15363;SDS011;7781;49.690;6.472;2022-09-30T05:28:38;15.10;;;5.70;;
15363;SDS011;7781;49.690;6.472;2022-09-30T05:31:08;28.33;;;4.97;;
15363;SDS011;7781;49.690;6.472;2022-09-30T05:33:37;31.57;;;5.47;;
15363;SDS011;7781;49.690;6.472;2022-09-30T05:36:07;40.43;;;5.20;;
15363;SDS011;7781;49.690;6.472;2022-09-30T05:38:36;41.53;;;5.30;;
15363;SDS011;7781;49.690;6.472;2022-09-30T05:41:07;17.40;;;4.20;;
15363;SDS011;7781;49.690;6.472;2022-09-30T05:43:37;7.63;;;4.80;;
15363;SDS011;7781;49.690;6.472;2022-09-30T05:46:05;8.97;;;4.30;;
15363;SDS011;7781;49.690;6.472;2022-09-30T05:48:35;13.07;;;3.93;;
15363;SDS011;7781;49.690;6.472;2022-09-30T05:51:03;28.23;;;4.23;;
15363;SDS011;7781;49.690;6.472;2022-09-30T05:53:33;26.23;;;4.20;;
15363;SDS011;7781;49.690;6.472;2022-09-30T05:56:04;10.90;;;4.00;;
15363;SDS011;7781;49.690;6.472;2022-09-30T05:58:32;4.47;;;3.87;;
15363;SDS011;7781;49.690;6.472;2022-09-30T06:01:03;66.47;;;5.43;;
15363;SDS011;7781;49.690;6.472;2022-09-30T06:03:40;13.03;;;4.27;;
15363;SDS011;7781;49.690;6.472;2022-09-30T06:06:09;8.13;;;3.63;;
15363;SDS011;7781;49.690;6.472;2022-09-30T06:08:38;20.13;;;4.40;;
15363;SDS011;7781;49.690;6.472;2022-09-30T06:11:07;35.07;;;4.13;;
15363;SDS011;7781;49.690;6.472;2022-09-30T06:13:38;5.10;;;3.73;;
15363;SDS011;7781;49.690;6.472;2022-09-30T06:16:07;58.27;;;5.80;;
15363;SDS011;7781;49.690;6.472;2022-09-30T06:18:36;29.17;;;5.57;;
15363;SDS011;7781;49.690;6.472;2022-09-30T06:21:08;41.63;;;4.60;;
15363;SDS011;7781;49.690;6.472;2022-09-30T06:23:41;34.73;;;4.23;;
15363;SDS011;7781;49.690;6.472;2022-09-30T06:26:10;6.13;;;4.00;;
15363;SDS011;7781;49.690;6.472;2022-09-30T06:28:39;26.30;;;4.10;;
15363;SDS011;7781;49.690;6.472;2022-09-30T06:31:08;25.33;;;4.17;;
15363;SDS011;7781;49.690;6.472;2022-09-30T06:33:36;11.50;;;3.77;;
15363;SDS011;7781;49.690;6.472;2022-09-30T06:36:04;36.07;;;4.10;;
15363;SDS011;7781;49.690;6.472;2022-09-30T06:38:34;30.73;;;4.73;;
15363;SDS011;7781;49.690;6.472;2022-09-30T06:41:03;13.17;;;3.93;;
15363;SDS011;7781;49.690;6.472;2022-09-30T06:43:31;6.70;;;3.97;;
15363;SDS011;7781;49.690;6.472;2022-09-30T06:46:18;13.37;;;4.57;;
15363;SDS011;7781;49.690;6.472;2022-09-30T06:48:56;9.40;;;4.47;;
15363;SDS011;7781;49.690;6.472;2022-09-30T06:51:37;15.17;;;3.77;;
15363;SDS011;7781;49.690;6.472;2022-09-30T06:54:07;20.37;;;4.10;;
15363;SDS011;7781;49.690;6.472;2022-09-30T06:56:35;31.40;;;4.37;;
15363;SDS011;7781;49.690;6.472;2022-09-30T06:59:03;57.43;;;5.03;;
15363;SDS011;7781;49.690;6.472;2022-09-30T07:01:32;20.13;;;3.90;;
15363;SDS011;7781;49.690;6.472;2022-09-30T07:04:00;28.87;;;5.17;;
15363;SDS011;7781;49.690;6.472;2022-09-30T07:06:34;15.23;;;4.13;;
15363;SDS011;7781;49.690;6.472;2022-09-30T07:09:03;26.00;;;4.83;;
15363;SDS011;7781;49.690;6.472;2022-09-30T07:11:33;37.13;;;5.97;;
15363;SDS011;7781;49.690;6.472;2022-09-30T07:14:02;13.90;;;4.50;;
15363;SDS011;7781;49.690;6.472;2022-09-30T07:16:30;59.40;;;6.03;;
15363;SDS011;7781;49.690;6.472;2022-09-30T07:18:59;11.03;;;6.00;;
15363;SDS011;7781;49.690;6.472;2022-09-30T07:21:28;9.40;;;4.87;;
15363;SDS011;7781;49.690;6.472;2022-09-30T07:23:56;10.90;;;4.87;;
15363;SDS011;7781;49.690;6.472;2022-09-30T07:26:25;57.60;;;5.23;;
15363;SDS011;7781;49.690;6.472;2022-09-30T07:28:55;121.57;;;8.17;;
15363;SDS011;7781;49.690;6.472;2022-09-30T07:31:25;31.23;;;4.60;;
15363;SDS011;7781;49.690;6.472;2022-09-30T07:33:59;141.10;;;7.50;;
15363;SDS011;7781;49.690;6.472;2022-09-30T07:36:29;19.67;;;5.30;;
15363;SDS011;7781;49.690;6.472;2022-09-30T07:39:00;13.97;;;5.77;;
15363;SDS011;7781;49.690;6.472;2022-09-30T07:41:32;120.13;;;6.77;;
15363;SDS011;7781;49.690;6.472;2022-09-30T07:44:03;51.97;;;6.03;;
15363;SDS011;7781;49.690;6.472;2022-09-30T07:46:34;73.37;;;6.30;;
15363;SDS011;7781;49.690;6.472;2022-09-30T07:49:05;22.03;;;4.70;;
15363;SDS011;7781;49.690;6.472;2022-09-30T07:51:39;59.97;;;6.60;;
15363;SDS011;7781;49.690;6.472;2022-09-30T07:54:11;82.07;;;6.83;;
15363;SDS011;7781;49.690;6.472;2022-09-30T07:56:42;51.70;;;5.70;;
15363;SDS011;7781;49.690;6.472;2022-09-30T07:59:33;32.77;;;6.10;;
15363;SDS011;7781;49.690;6.472;2022-09-30T08:02:03;10.27;;;4.43;;
15363;SDS011;7781;49.690;6.472;2022-09-30T08:04:32;33.23;;;4.90;;
15363;SDS011;7781;49.690;6.472;2022-09-30T08:07:07;23.13;;;5.10;;
15363;SDS011;7781;49.690;6.472;2022-09-30T08:09:35;33.23;;;6.17;;
15363;SDS011;7781;49.690;6.472;2022-09-30T08:12:03;43.20;;;5.20;;
15363;SDS011;7781;49.690;6.472;2022-09-30T08:14:32;34.87;;;5.50;;
15363;SDS011;7781;49.690;6.472;2022-09-30T08:17:01;104.63;;;6.57;;
15363;SDS011;7781;49.690;6.472;2022-09-30T08:19:29;8.73;;;4.40;;
15363;SDS011;7781;49.690;6.472;2022-09-30T08:21:58;46.00;;;5.43;;
15363;SDS011;7781;49.690;6.472;2022-09-30T08:24:31;32.90;;;6.23;;
15363;SDS011;7781;49.690;6.472;2022-09-30T08:26:59;22.30;;;5.60;;
15363;SDS011;7781;49.690;6.472;2022-09-30T08:29:27;68.77;;;7.00;;
15363;SDS011;7781;49.690;6.472;2022-09-30T08:32:17;7.73;;;4.80;;
15363;SDS011;7781;49.690;6.472;2022-09-30T08:34:45;10.83;;;4.97;;
15363;SDS011;7781;49.690;6.472;2022-09-30T08:37:13;38.43;;;4.83;;
15363;SDS011;7781;49.690;6.472;2022-09-30T08:39:41;15.93;;;4.53;;
15363;SDS011;7781;49.690;6.472;2022-09-30T08:42:19;27.73;;;6.47;;
15363;SDS011;7781;49.690;6.472;2022-09-30T08:45:06;11.47;;;4.80;;
15363;SDS011;7781;49.690;6.472;2022-09-30T08:47:52;6.00;;;4.37;;
15363;SDS011;7781;49.690;6.472;2022-09-30T08:50:27;8.17;;;4.47;;
15363;SDS011;7781;49.690;6.472;2022-09-30T08:53:02;11.90;;;4.97;;
15363;SDS011;7781;49.690;6.472;2022-09-30T08:55:37;44.83;;;5.90;;
15363;SDS011;7781;49.690;6.472;2022-09-30T08:58:10;7.77;;;4.90;;
15363;SDS011;7781;49.690;6.472;2022-09-30T09:00:45;19.33;;;5.93;;
15363;SDS011;7781;49.690;6.472;2022-09-30T09:03:16;73.57;;;6.47;;
15363;SDS011;7781;49.690;6.472;2022-09-30T09:05:46;14.93;;;5.30;;
15363;SDS011;7781;49.690;6.472;2022-09-30T09:08:24;22.53;;;6.37;;
15363;SDS011;7781;49.690;6.472;2022-09-30T09:11:01;44.67;;;5.97;;
15363;SDS011;7781;49.690;6.472;2022-09-30T09:13:43;7.20;;;5.57;;
15363;SDS011;7781;49.690;6.472;2022-09-30T09:16:19;8.00;;;5.50;;
15363;SDS011;7781;49.690;6.472;2022-09-30T09:18:53;10.23;;;6.07;;
15363;SDS011;7781;49.690;6.472;2022-09-30T09:21:41;11.53;;;6.70;;
15363;SDS011;7781;49.690;6.472;2022-09-30T09:24:17;71.83;;;8.00;;
15363;SDS011;7781;49.690;6.472;2022-09-30T09:26:46;12.67;;;6.10;;
15363;SDS011;7781;49.690;6.472;2022-09-30T09:29:21;7.53;;;6.53;;
15363;SDS011;7781;49.690;6.472;2022-09-30T09:32:02;11.80;;;6.47;;
15363;SDS011;7781;49.690;6.472;2022-09-30T09:34:39;11.73;;;6.40;;
15363;SDS011;7781;49.690;6.472;2022-09-30T09:37:10;14.07;;;6.13;;
15363;SDS011;7781;49.690;6.472;2022-09-30T09:39:56;7.27;;;6.40;;
15363;SDS011;7781;49.690;6.472;2022-09-30T09:42:39;11.23;;;8.60;;
15363;SDS011;7781;49.690;6.472;2022-09-30T09:45:22;12.23;;;7.00;;
15363;SDS011;7781;49.690;6.472;2022-09-30T09:47:56;8.60;;;6.20;;
15363;SDS011;7781;49.690;6.472;2022-09-30T09:50:29;11.30;;;6.70;;
15363;SDS011;7781;49.690;6.472;2022-09-30T09:53:10;9.50;;;6.70;;
15363;SDS011;7781;49.690;6.472;2022-09-30T09:55:47;10.03;;;7.33;;
15363;SDS011;7781;49.690;6.472;2022-09-30T09:58:16;14.87;;;7.57;;
15363;SDS011;7781;49.690;6.472;2022-09-30T10:00:44;7.23;;;6.50;;
15363;SDS011;7781;49.690;6.472;2022-09-30T10:03:34;13.43;;;7.50;;
15363;SDS011;7781;49.690;6.472;2022-09-30T10:06:07;7.67;;;6.40;;
15363;SDS011;7781;49.690;6.472;2022-09-30T10:08:38;7.47;;;6.67;;
15363;SDS011;7781;49.690;6.472;2022-09-30T10:11:19;10.07;;;6.73;;
15363;SDS011;7781;49.690;6.472;2022-09-30T10:13:49;11.73;;;6.83;;
15363;SDS011;7781;49.690;6.472;2022-09-30T10:16:24;10.57;;;7.40;;
15363;SDS011;7781;49.690;6.472;2022-09-30T10:18:55;11.60;;;8.70;;
15363;SDS011;7781;49.690;6.472;2022-09-30T10:21:25;12.03;;;6.60;;
15363;SDS011;7781;49.690;6.472;2022-09-30T10:23:55;11.00;;;7.37;;
15363;SDS011;7781;49.690;6.472;2022-09-30T10:26:25;9.20;;;7.27;;
15363;SDS011;7781;49.690;6.472;2022-09-30T10:28:55;7.80;;;6.80;;
15363;SDS011;7781;49.690;6.472;2022-09-30T10:31:25;9.83;;;7.40;;
15363;SDS011;7781;49.690;6.472;2022-09-30T10:33:56;7.60;;;6.60;;
15363;SDS011;7781;49.690;6.472;2022-09-30T10:36:31;9.87;;;6.40;;
15363;SDS011;7781;49.690;6.472;2022-09-30T10:39:02;10.90;;;7.53;;
15363;SDS011;7781;49.690;6.472;2022-09-30T10:41:34;8.77;;;6.67;;
15363;SDS011;7781;49.690;6.472;2022-09-30T10:44:04;13.00;;;7.67;;
15363;SDS011;7781;49.690;6.472;2022-09-30T10:46:39;9.47;;;6.50;;
15363;SDS011;7781;49.690;6.472;2022-09-30T10:49:10;6.90;;;6.20;;
15363;SDS011;7781;49.690;6.472;2022-09-30T10:51:52;7.43;;;6.30;;
15363;SDS011;7781;49.690;6.472;2022-09-30T10:54:34;12.00;;;6.63;;
15363;SDS011;7781;49.690;6.472;2022-09-30T10:57:13;8.00;;;6.07;;
15363;SDS011;7781;49.690;6.472;2022-09-30T10:59:42;8.37;;;6.27;;
15363;SDS011;7781;49.690;6.472;2022-09-30T11:02:14;7.50;;;6.30;;
15363;SDS011;7781;49.690;6.472;2022-09-30T11:04:50;11.37;;;5.90;;
15363;SDS011;7781;49.690;6.472;2022-09-30T11:07:28;6.77;;;6.03;;
15363;SDS011;7781;49.690;6.472;2022-09-30T11:10:04;8.03;;;5.50;;
15363;SDS011;7781;49.690;6.472;2022-09-30T11:12:42;7.73;;;6.10;;
15363;SDS011;7781;49.690;6.472;2022-09-30T11:15:15;6.33;;;5.23;;
15363;SDS011;7781;49.690;6.472;2022-09-30T11:17:49;8.50;;;5.57;;
15363;SDS011;7781;49.690;6.472;2022-09-30T11:20:24;7.70;;;5.20;;
15363;SDS011;7781;49.690;6.472;2022-09-30T11:22:57;9.67;;;5.00;;
15363;SDS011;7781;49.690;6.472;2022-09-30T11:25:33;5.73;;;4.50;;
15363;SDS011;7781;49.690;6.472;2022-09-30T11:28:14;5.77;;;3.93;;
15363;SDS011;7781;49.690;6.472;2022-09-30T11:30:54;8.57;;;4.00;;
15363;SDS011;7781;49.690;6.472;2022-09-30T11:33:42;4.97;;;3.80;;
15363;SDS011;7781;49.690;6.472;2022-09-30T11:36:21;5.07;;;3.80;;
15363;SDS011;7781;49.690;6.472;2022-09-30T11:39:02;6.37;;;4.07;;
15363;SDS011;7781;49.690;6.472;2022-09-30T11:41:45;4.17;;;3.70;;
15363;SDS011;7781;49.690;6.472;2022-09-30T11:44:18;6.13;;;3.40;;
15363;SDS011;7781;49.690;6.472;2022-09-30T11:47:13;3.20;;;2.90;;
15363;SDS011;7781;49.690;6.472;2022-09-30T11:49:57;9.60;;;4.20;;
15363;SDS011;7781;49.690;6.472;2022-09-30T11:52:38;5.93;;;4.10;;
15363;SDS011;7781;49.690;6.472;2022-09-30T11:55:27;7.60;;;3.67;;
15363;SDS011;7781;49.690;6.472;2022-09-30T11:58:09;7.13;;;3.50;;
15363;SDS011;7781;49.690;6.472;2022-09-30T12:01:04;4.20;;;3.10;;
15363;SDS011;7781;49.690;6.472;2022-09-30T12:03:44;5.37;;;3.20;;
15363;SDS011;7781;49.690;6.472;2022-09-30T12:06:21;5.37;;;3.40;;
15363;SDS011;7781;49.690;6.472;2022-09-30T12:09:03;6.00;;;2.73;;
15363;SDS011;7781;49.690;6.472;2022-09-30T12:11:38;5.10;;;3.30;;
15363;SDS011;7781;49.690;6.472;2022-09-30T12:14:16;3.57;;;3.10;;
15363;SDS011;7781;49.690;6.472;2022-09-30T12:16:50;6.50;;;3.50;;
15363;SDS011;7781;49.690;6.472;2022-09-30T12:19:19;4.30;;;3.13;;
15363;SDS011;7781;49.690;6.472;2022-09-30T12:21:52;6.73;;;3.10;;
15363;SDS011;7781;49.690;6.472;2022-09-30T12:24:29;3.23;;;2.90;;
15363;SDS011;7781;49.690;6.472;2022-09-30T12:27:02;6.27;;;3.17;;
15363;SDS011;7781;49.690;6.472;2022-09-30T12:29:33;3.70;;;2.90;;
15363;SDS011;7781;49.690;6.472;2022-09-30T12:32:30;3.60;;;2.90;;
15363;SDS011;7781;49.690;6.472;2022-09-30T12:35:29;9.00;;;3.33;;
15363;SDS011;7781;49.690;6.472;2022-09-30T12:41:28;5.03;;;2.80;;
15363;SDS011;7781;49.690;6.472;2022-09-30T12:44:16;4.27;;;3.10;;
15363;SDS011;7781;49.690;6.472;2022-09-30T12:47:09;5.07;;;2.70;;
15363;SDS011;7781;49.690;6.472;2022-09-30T12:49:48;6.60;;;3.00;;
15363;SDS011;7781;49.690;6.472;2022-09-30T12:52:19;11.00;;;2.70;;
15363;SDS011;7781;49.690;6.472;2022-09-30T12:54:49;5.77;;;3.50;;
15363;SDS011;7781;49.690;6.472;2022-09-30T12:57:22;4.53;;;3.37;;
15363;SDS011;7781;49.690;6.472;2022-09-30T12:59:56;7.43;;;3.63;;
15363;SDS011;7781;49.690;6.472;2022-09-30T13:02:30;5.40;;;2.90;;
15363;SDS011;7781;49.690;6.472;2022-09-30T13:08:22;5.83;;;2.67;;
15363;SDS011;7781;49.690;6.472;2022-09-30T13:11:20;4.07;;;3.00;;
15363;SDS011;7781;49.690;6.472;2022-09-30T13:14:17;3.30;;;2.83;;
15363;SDS011;7781;49.690;6.472;2022-09-30T13:19:53;4.70;;;2.77;;
15363;SDS011;7781;49.690;6.472;2022-09-30T13:25:24;3.60;;;2.73;;
15363;SDS011;7781;49.690;6.472;2022-09-30T13:27:53;3.03;;;2.30;;
15363;SDS011;7781;49.690;6.472;2022-09-30T13:30:52;2.80;;;2.30;;
15363;SDS011;7781;49.690;6.472;2022-09-30T13:33:41;5.97;;;2.50;;
15363;SDS011;7781;49.690;6.472;2022-09-30T13:36:25;8.03;;;2.60;;
15363;SDS011;7781;49.690;6.472;2022-09-30T13:41:45;5.20;;;2.40;;
15363;SDS011;7781;49.690;6.472;2022-09-30T13:44:20;2.53;;;1.83;;
15363;SDS011;7781;49.690;6.472;2022-09-30T13:46:55;4.23;;;2.70;;
15363;SDS011;7781;49.690;6.472;2022-09-30T13:49:32;2.40;;;2.10;;
15363;SDS011;7781;49.690;6.472;2022-09-30T13:52:08;7.47;;;1.97;;
15363;SDS011;7781;49.690;6.472;2022-09-30T13:54:46;4.53;;;2.40;;
15363;SDS011;7781;49.690;6.472;2022-09-30T13:57:17;4.97;;;2.47;;
15363;SDS011;7781;49.690;6.472;2022-09-30T13:59:52;3.23;;;2.00;;
15363;SDS011;7781;49.690;6.472;2022-09-30T14:02:43;4.40;;;2.50;;
15363;SDS011;7781;49.690;6.472;2022-09-30T14:05:25;6.20;;;2.27;;
15363;SDS011;7781;49.690;6.472;2022-09-30T14:08:13;2.20;;;1.97;;
15363;SDS011;7781;49.690;6.472;2022-09-30T14:11:17;3.90;;;2.57;;
15363;SDS011;7781;49.690;6.472;2022-09-30T14:13:57;3.43;;;2.37;;
15363;SDS011;7781;49.690;6.472;2022-09-30T14:16:52;3.40;;;2.10;;
15363;SDS011;7781;49.690;6.472;2022-09-30T14:19:39;5.47;;;2.27;;
15363;SDS011;7781;49.690;6.472;2022-09-30T14:22:19;4.07;;;2.30;;
15363;SDS011;7781;49.690;6.472;2022-09-30T14:24:51;4.10;;;2.67;;
15363;SDS011;7781;49.690;6.472;2022-09-30T14:27:26;4.30;;;2.30;;
15363;SDS011;7781;49.690;6.472;2022-09-30T14:30:02;5.33;;;2.50;;
15363;SDS011;7781;49.690;6.472;2022-09-30T14:32:35;3.70;;;2.40;;
15363;SDS011;7781;49.690;6.472;2022-09-30T14:35:10;4.10;;;2.90;;
15363;SDS011;7781;49.690;6.472;2022-09-30T14:37:44;4.67;;;3.07;;
15363;SDS011;7781;49.690;6.472;2022-09-30T14:40:16;4.83;;;2.60;;
15363;SDS011;7781;49.690;6.472;2022-09-30T14:42:46;5.30;;;2.90;;
15363;SDS011;7781;49.690;6.472;2022-09-30T14:45:20;5.37;;;3.10;;
15363;SDS011;7781;49.690;6.472;2022-09-30T14:47:52;8.40;;;3.40;;
15363;SDS011;7781;49.690;6.472;2022-09-30T14:50:25;6.03;;;2.70;;
15363;SDS011;7781;49.690;6.472;2022-09-30T14:52:58;7.30;;;2.93;;
15363;SDS011;7781;49.690;6.472;2022-09-30T14:55:29;7.43;;;3.13;;
15363;SDS011;7781;49.690;6.472;2022-09-30T14:58:16;5.87;;;2.70;;
15363;SDS011;7781;49.690;6.472;2022-09-30T15:00:48;4.00;;;2.70;;
15363;SDS011;7781;49.690;6.472;2022-09-30T15:03:23;4.40;;;2.40;;
15363;SDS011;7781;49.690;6.472;2022-09-30T15:05:52;4.20;;;2.63;;
15363;SDS011;7781;49.690;6.472;2022-09-30T15:08:21;3.67;;;2.33;;
15363;SDS011;7781;49.690;6.472;2022-09-30T15:10:51;3.60;;;2.30;;
15363;SDS011;7781;49.690;6.472;2022-09-30T15:13:21;5.00;;;2.27;;
15363;SDS011;7781;49.690;6.472;2022-09-30T15:15:50;3.57;;;2.20;;
15363;SDS011;7781;49.690;6.472;2022-09-30T15:21:11;3.80;;;2.40;;
15363;SDS011;7781;49.690;6.472;2022-09-30T15:23:43;4.17;;;2.47;;
15363;SDS011;7781;49.690;6.472;2022-09-30T15:26:17;4.47;;;2.00;;
15363;SDS011;7781;49.690;6.472;2022-09-30T15:28:49;5.43;;;2.87;;
15363;SDS011;7781;49.690;6.472;2022-09-30T15:31:19;4.43;;;2.27;;
15363;SDS011;7781;49.690;6.472;2022-09-30T15:33:59;4.10;;;2.60;;
15363;SDS011;7781;49.690;6.472;2022-09-30T15:36:28;4.60;;;2.57;;
15363;SDS011;7781;49.690;6.472;2022-09-30T15:38:58;2.50;;;2.10;;
15363;SDS011;7781;49.690;6.472;2022-09-30T15:41:26;2.83;;;2.30;;
15363;SDS011;7781;49.690;6.472;2022-09-30T15:43:55;12.70;;;3.20;;
15363;SDS011;7781;49.690;6.472;2022-09-30T15:46:26;6.30;;;2.60;;
15363;SDS011;7781;49.690;6.472;2022-09-30T15:48:58;3.90;;;2.43;;
15363;SDS011;7781;49.690;6.472;2022-09-30T15:51:29;3.10;;;2.03;;
15363;SDS011;7781;49.690;6.472;2022-09-30T15:56:58;3.43;;;2.17;;
15363;SDS011;7781;49.690;6.472;2022-09-30T16:02:25;2.60;;;1.77;;